地図

経路データ

SID SEASON NUMBER BASIN SUBBASIN NAME ISO_TIME NATURE LAT LON WMO_WIND WMO_PRES WMO_AGENCY TRACK_TYPE DIST2LAND LANDFALL IFLAG USA_AGENCY USA_ATCF_ID USA_LAT USA_LON USA_RECORD USA_STATUS USA_WIND USA_PRES USA_SSHS USA_R34_NE USA_R34_SE USA_R34_SW USA_R34_NW USA_R50_NE USA_R50_SE USA_R50_SW USA_R50_NW USA_R64_NE USA_R64_SE USA_R64_SW USA_R64_NW USA_POCI USA_ROCI USA_RMW USA_EYE TOKYO_LAT TOKYO_LON TOKYO_GRADE TOKYO_WIND TOKYO_PRES TOKYO_R50_DIR TOKYO_R50_LONG TOKYO_R50_SHORT TOKYO_R30_DIR TOKYO_R30_LONG TOKYO_R30_SHORT TOKYO_LAND CMA_LAT CMA_LON CMA_CAT CMA_WIND CMA_PRES HKO_LAT HKO_LON HKO_CAT HKO_WIND HKO_PRES NEWDELHI_LAT NEWDELHI_LON NEWDELHI_GRADE NEWDELHI_WIND NEWDELHI_PRES NEWDELHI_CI NEWDELHI_DP NEWDELHI_POCI REUNION_LAT REUNION_LON REUNION_TYPE REUNION_WIND REUNION_PRES REUNION_TNUM REUNION_CI REUNION_RMW REUNION_R34_NE REUNION_R34_SE REUNION_R34_SW REUNION_R34_NW REUNION_R50_NE REUNION_R50_SE REUNION_R50_SW REUNION_R50_NW REUNION_R64_NE REUNION_R64_SE REUNION_R64_SW REUNION_R64_NW BOM_LAT BOM_LON BOM_TYPE BOM_WIND BOM_PRES BOM_TNUM BOM_CI BOM_RMW BOM_R34_NE BOM_R34_SE BOM_R34_SW BOM_R34_NW BOM_R50_NE BOM_R50_SE BOM_R50_SW BOM_R50_NW BOM_R64_NE BOM_R64_SE BOM_R64_SW BOM_R64_NW BOM_ROCI BOM_POCI BOM_EYE BOM_POS_METHOD BOM_PRES_METHOD NADI_LAT NADI_LON NADI_CAT NADI_WIND NADI_PRES WELLINGTON_LAT WELLINGTON_LON WELLINGTON_WIND WELLINGTON_PRES DS824_LAT DS824_LON DS824_STAGE DS824_WIND DS824_PRES TD9636_LAT TD9636_LON TD9636_STAGE TD9636_WIND TD9636_PRES TD9635_LAT TD9635_LON TD9635_WIND TD9635_PRES TD9635_ROCI NEUMANN_LAT NEUMANN_LON NEUMANN_CLASS NEUMANN_WIND NEUMANN_PRES MLC_LAT MLC_LON MLC_CLASS MLC_WIND MLC_PRES USA_GUST BOM_GUST BOM_GUST_PER REUNION_GUST REUNION_GUST_PER USA_SEAHGT USA_SEARAD_NE USA_SEARAD_SE USA_SEARAD_SW USA_SEARAD_NW STORM_SPEED STORM_DIR
1887198N15119 1887 23 WP MM NOT_NAMED 1887-07-16 16:00:00 NR 14.5000 119.000 main 123 120 __________O___ -1 14.5000 119.000 7 27 340
1887198N15119 1887 23 WP MM NOT_NAMED 1887-07-16 18:00:00 NR 15.3276 118.692 main 129 122 __________P___ -1 15.3276 118.692 7 26 340
1887198N15119 1887 23 WP MM NOT_NAMED 1887-07-16 21:00:00 NR 16.5151 118.242 main 169 173 __________P___ -1 16.5151 118.242 7 24 340
1887198N15119 1887 23 WP MM NOT_NAMED 1887-07-17 00:00:00 NR 17.5632 117.833 main 257 257 __________P___ -1 17.5632 117.833 7 20 339
1887198N15119 1887 23 WP MM NOT_NAMED 1887-07-17 03:00:00 NR 18.3886 117.493 main 309 309 __________P___ -1 18.3886 117.493 7 17 338
1887198N15119 1887 23 WP MM NOT_NAMED 1887-07-17 04:00:00 NR 18.6000 117.400 main 326 326 __________O___ -1 18.6000 117.400 7 12 336
1887198N15119 1887 23 WP MM NOT_NAMED 1887-07-17 06:00:00 NR 18.9180 117.249 main 358 358 __________P___ -1 18.9180 117.249 7 8 334
1887198N15119 1887 23 WP MM NOT_NAMED 1887-07-17 09:00:00 NR 19.1813 117.094 main 378 378 __________P___ -1 19.1813 117.094 7 4 326
1887198N15119 1887 23 WP MM NOT_NAMED 1887-07-17 12:00:00 NR 19.2743 116.997 main 391 391 __________P___ -1 19.2743 116.997 7 2 305
1887198N15119 1887 23 WP MM NOT_NAMED 1887-07-17 15:00:00 NR 19.2934 116.924 main 396 396 __________P___ -1 19.2934 116.924 7 1 287
1887198N15119 1887 23 WP MM NOT_NAMED 1887-07-17 16:00:00 NR 19.3000 116.900 main 396 383 __________O___ -1 19.3000 116.900 7 2 313
1887198N15119 1887 23 WP MM NOT_NAMED 1887-07-17 18:00:00 NR 19.3785 116.830 main 383 369 __________P___ -1 19.3785 116.830 7 3 318
1887198N15119 1887 23 WP MM NOT_NAMED 1887-07-17 21:00:00 NR 19.4773 116.732 main 369 356 __________P___ -1 19.4773 116.732 7 3 316
1887198N15119 1887 23 WP MM NOT_NAMED 1887-07-18 00:00:00 NR 19.5671 116.636 main 356 343 __________P___ -1 19.5671 116.636 7 3 315
1887198N15119 1887 23 WP MM NOT_NAMED 1887-07-18 03:00:00 NR 19.6636 116.535 main 343 343 __________P___ -1 19.6636 116.535 7 3 317
1887198N15119 1887 23 WP MM NOT_NAMED 1887-07-18 04:00:00 NR 19.7000 116.500 main 343 330 __________O___ -1 19.7000 116.500 3 3 322
1887198N15119 1887 23 WP MM NOT_NAMED 1887-07-18 06:00:00 NR 19.7964 116.425 main 330 306 __________P___ -1 19.7964 116.425 3 4 325
1887198N15119 1887 23 WP MM NOT_NAMED 1887-07-18 09:00:00 NR 19.9539 116.306 main 306 293 __________P___ -1 19.9539 116.306 3 4 324
1887198N15119 1887 23 WP MM NOT_NAMED 1887-07-18 12:00:00 NR 20.1128 116.180 main 293 269 __________P___ -1 20.1128 116.180 3 4 321
1887198N15119 1887 23 WP MM NOT_NAMED 1887-07-18 15:00:00 NR 20.2576 116.046 main 269 269 __________P___ -1 20.2576 116.046 3 4 318
1887198N15119 1887 23 WP MM NOT_NAMED 1887-07-18 16:00:00 NR 20.3000 116.000 main 269 256 __________O___ -1 20.3000 116.000 4 3 309
1887198N15119 1887 23 WP MM NOT_NAMED 1887-07-18 18:00:00 NR 20.3671 115.906 main 256 252 __________P___ -1 20.3671 115.906 4 3 303
1887198N15119 1887 23 WP MM NOT_NAMED 1887-07-18 21:00:00 NR 20.4489 115.758 main 252 235 __________P___ -1 20.4489 115.758 4 3 298
1887198N15119 1887 23 WP MM NOT_NAMED 1887-07-19 00:00:00 NR 20.5163 115.605 main 235 221 __________P___ -1 20.5163 115.605 4 3 294
1887198N15119 1887 23 WP MM NOT_NAMED 1887-07-19 03:00:00 NR 20.5787 115.451 main 221 218 __________P___ -1 20.5787 115.451 4 3 294
1887198N15119 1887 23 WP MM NOT_NAMED 1887-07-19 04:00:00 NR 20.6000 115.400 main 218 205 __________O___ -1 20.6000 115.400 4 3 299
1887198N15119 1887 23 WP MM NOT_NAMED 1887-07-19 06:00:00 NR 20.6526 115.305 main 205 201 __________P___ -1 20.6526 115.305 4 3 301
1887198N15119 1887 23 WP MM NOT_NAMED 1887-07-19 09:00:00 NR 20.7315 115.163 main 201 182 __________P___ -1 20.7315 115.163 4 3 300
1887198N15119 1887 23 WP MM NOT_NAMED 1887-07-19 12:00:00 NR 20.8078 115.016 main 182 168 __________P___ -1 20.8078 115.016 4 3 297
1887198N15119 1887 23 WP MM NOT_NAMED 1887-07-19 15:00:00 NR 20.8783 114.857 main 168 164 __________P___ -1 20.8783 114.857 4 3 295
1887198N15119 1887 23 WP MM NOT_NAMED 1887-07-19 16:00:00 NR 20.9000 114.800 main 164 161 __________O___ -1 20.9000 114.800 4 3 297
1887198N15119 1887 23 WP MM NOT_NAMED 1887-07-19 18:00:00 NR 20.9464 114.715 main 161 148 __________P___ -1 20.9464 114.715 4 3 298
1887198N15119 1887 23 WP MM NOT_NAMED 1887-07-19 21:00:00 NR 21.0101 114.575 main 148 134 __________P___ -1 21.0101 114.575 4 3 291
1887198N15119 1887 23 WP MM NOT_NAMED 1887-07-20 00:00:00 NR 21.0613 114.388 main 134 134 __________P___ -1 21.0613 114.388 4 4 281
1887198N15119 1887 23 WP MM NOT_NAMED 1887-07-20 03:00:00 NR 21.0942 114.116 main 135 133 __________P___ -1 21.0942 114.116 4 5 276
1887198N15119 1887 23 WP MM NOT_NAMED 1887-07-20 04:00:00 NR 21.1000 114.000 main 133 115 __________O___ -1 21.1000 114.000 4 7 272
1887198N15119 1887 23 WP MM NOT_NAMED 1887-07-20 06:00:00 NR 21.1060 113.721 main 115 91 __________P___ -1 21.1060 113.721 4 9 270
1887198N15119 1887 23 WP MM NOT_NAMED 1887-07-20 09:00:00 NR 21.0959 113.215 main 91 73 __________P___ -1 21.0959 113.215 4 10 268
1887198N15119 1887 23 WP MM NOT_NAMED 1887-07-20 12:00:00 NR 21.0657 112.633 main 73 67 __________P___ -1 21.0657 112.633 4 11 266
1887198N15119 1887 23 WP MM NOT_NAMED 1887-07-20 15:00:00 NR 21.0187 112.011 main 69 59 __________P___ -1 21.0187 112.011 4 12 265
1887198N15119 1887 23 WP MM NOT_NAMED 1887-07-20 16:00:00 NR 21.0000 111.800 main 59 45 __________O___ -1 21.0000 111.800 4 12 264
1887198N15119 1887 23 WP MM NOT_NAMED 1887-07-20 18:00:00 NR 20.9569 111.358 main 45 35 __________P___ -1 20.9569 111.358 4 13 263
1887198N15119 1887 23 WP MM NOT_NAMED 1887-07-20 21:00:00 NR 20.8792 110.676 main 35 0 __________P___ -1 20.8792 110.676 4 13 263
1887198N15119 1887 23 WP MM NOT_NAMED 1887-07-21 00:00:00 NR 20.7965 110.023 main 0 0 __________P___ -1 20.7965 110.023 4 11 262
1887198N15119 1887 23 WP MM NOT_NAMED 1887-07-21 03:00:00 NR 20.7212 109.458 main 23 33 __________P___ -1 20.7212 109.458 4 10 262
1887198N15119 1887 23 WP MM NOT_NAMED 1887-07-21 04:00:00 NR 20.7000 109.300 main 43 43 __________O___ -1 20.7000 109.300 4 8 263
1887198N15119 1887 23 WP MM NOT_NAMED 1887-07-21 06:00:00 NR 20.6735 109.059 main 63 73 __________P___ -1 20.6735 109.059 4 6 264
1887198N15119 1887 23 WP MM NOT_NAMED 1887-07-21 09:00:00 NR 20.6473 108.798 main 96 96 __________P___ -1 20.6473 108.798 4 4 264
1887198N15119 1887 23 WP MM NOT_NAMED 1887-07-21 12:00:00 NR 20.6291 108.614 main 108 105 __________P___ -1 20.6291 108.614 4 3 263
1887198N15119 1887 23 WP MM NOT_NAMED 1887-07-21 15:00:00 NR 20.6089 108.455 main 105 102 __________P___ -1 20.6089 108.455 4 3 262
1887198N15119 1887 23 WP MM NOT_NAMED 1887-07-21 16:00:00 NR 20.6000 108.400 main 102 98 __________O___ -1 20.6000 108.400 4 4 258
1887198N15119 1887 23 WP MM NOT_NAMED 1887-07-21 18:00:00 NR 20.5697 108.253 main 98 83 __________P___ -1 20.5697 108.253 4 4 257
1887198N15119 1887 23 WP MM NOT_NAMED 1887-07-21 21:00:00 NR 20.5178 108.032 main 83 69 __________P___ -1 20.5178 108.032 4 4 256
1887198N15119 1887 23 WP MM NOT_NAMED 1887-07-22 00:00:00 NR 20.4640 107.808 main 69 69 __________P___ -1 20.4640 107.808 4 4 256
1887198N15119 1887 23 WP MM NOT_NAMED 1887-07-22 03:00:00 NR 20.4145 107.578 main 69 64 __________P___ -1 20.4145 107.578 4 4 258
1887198N15119 1887 23 WP MM NOT_NAMED 1887-07-22 04:00:00 NR 20.4000 107.500 main 64 56 __________O___ -1 20.4000 107.500 4 4 262
1887198N15119 1887 23 WP MM NOT_NAMED 1887-07-22 06:00:00 NR 20.3828 107.342 main 56 45 __________P___ -1 20.3828 107.342 4 5 264
1887198N15119 1887 23 WP MM NOT_NAMED 1887-07-22 09:00:00 NR 20.3635 107.098 main 45 20 __________P___ -1 20.3635 107.098 4 5 265
1887198N15119 1887 23 WP MM NOT_NAMED 1887-07-22 12:00:00 NR 20.3436 106.847 main 20 0 __________P___ -1 20.3436 106.847 4 5 264
1887198N15119 1887 23 WP MM NOT_NAMED 1887-07-22 15:00:00 NR 20.3138 106.588 main 0 0 __________P___ -1 20.3138 106.588 4 5 262
1887198N15119 1887 23 WP MM NOT_NAMED 1887-07-22 16:00:00 NR 20.3000 106.500 main 0 0 __________O___ -1 20.3000 106.500 4 5 259
1887198N15119 1887 23 WP MM NOT_NAMED 1887-07-22 18:00:00 NR 20.2654 106.322 main 0 0 __________P___ -1 20.2654 106.322 4 5 257
1887198N15119 1887 23 WP MM NOT_NAMED 1887-07-22 21:00:00 NR 20.1984 106.049 main 0 0 __________P___ -1 20.1984 106.049 4 5 254
1887198N15119 1887 23 WP MM NOT_NAMED 1887-07-23 00:00:00 NR 20.1182 105.772 main 0 0 __________P___ -1 20.1182 105.772 4 5 252
1887198N15119 1887 23 WP MM NOT_NAMED 1887-07-23 03:00:00 NR 20.0301 105.493 main 0 0 __________P___ -1 20.0301 105.493 4 6 251
1887198N15119 1887 23 WP MM NOT_NAMED 1887-07-23 04:00:00 NR 20.0000 105.400 main 0 __________O___ -1 20.0000 105.400 7 6 252

デジタル台風データ・検索

IBTrACS Databaseについて

本データベースは、米国NOAAが公開する1842年以降の世界の熱帯低気圧のベストトラックデータアーカイブInternational Best Track Archive for Climate Stewardship (IBTrACS)を、ウェブで閲覧しやすい形式に変換したものです。

最終更新日:2021-10-25